Time;durP1;ratioP1;P1;durP2;ratioP2;P2;SDS_P1;SDS_P2;PMS_P1;PMS_P2;Temp;Humidity;BMP_temperature;BMP_pressure;BME280_temperature;BME280_humidity;BME280_pressure;Samples;Min_cycle;Max_cycle;Signal;HPM_P1;HPM_P2
2022/04/02 00:01:21;;;;;;;11.77;6.55;;;1.70;99.90;;;;;;4989911;28;20025;-61
2022/04/02 00:03:47;;;;;;;10.02;6.53;;;1.80;99.90;;;;;;4986840;28;20054;-61
2022/04/02 00:06:12;;;;;;;12.52;6.45;;;1.80;99.90;;;;;;5006995;28;20052;-61
2022/04/02 00:08:38;;;;;;;8.68;6.20;;;1.90;99.90;;;;;;4993332;28;20030;-61
2022/04/02 00:11:04;;;;;;;10.40;6.30;;;1.80;99.90;;;;;;5004298;28;20018;-60
2022/04/02 00:13:31;;;;;;;7.65;5.93;;;1.90;99.90;;;;;;5009110;28;20030;-61
2022/04/02 00:15:58;;;;;;;10.05;6.35;;;1.80;99.90;;;;;;5006314;28;20029;-60
2022/04/02 00:18:23;;;;;;;8.43;5.65;;;2.00;99.90;;;;;;5006698;28;20214;-61
2022/04/02 00:20:49;;;;;;;9.00;5.88;;;1.90;99.90;;;;;;5005264;28;20172;-61
2022/04/02 00:25:59;;;;;;;7.88;5.90;;;1.80;99.90;;;;;;5001103;28;20136;-59
2022/04/02 00:28:25;;;;;;;11.25;5.90;;;1.70;99.90;;;;;;5006799;28;20026;-61
2022/04/02 00:30:51;;;;;;;8.27;5.95;;;1.80;99.90;;;;;;5005840;28;20709;-61
2022/04/02 00:33:17;;;;;;;9.25;5.35;;;1.90;99.90;;;;;;5005722;28;20443;-61
2022/04/02 00:35:42;;;;;;;8.90;5.18;;;1.80;99.90;;;;;;5007590;28;20022;-60
2022/04/02 00:38:08;;;;;;;9.02;6.00;;;1.80;99.90;;;;;;5005933;28;20554;-60
2022/04/02 00:40:34;;;;;;;9.77;5.88;;;1.70;99.90;;;;;;5001686;28;20657;-60
2022/04/02 00:43:00;;;;;;;9.00;5.93;;;1.80;99.90;;;;;;5003821;28;20774;-61
2022/04/02 00:45:25;;;;;;;9.50;4.88;;;1.80;99.90;;;;;;5005310;28;20029;-60
2022/04/02 00:47:51;;;;;;;8.25;4.70;;;1.70;99.90;;;;;;5003933;28;20041;-59
2022/04/02 00:50:16;;;;;;;10.05;5.15;;;1.80;99.90;;;;;;5003810;28;20019;-60
2022/04/02 00:52:43;;;;;;;6.82;4.80;;;1.80;99.90;;;;;;5004688;28;20050;-60
2022/04/02 00:55:09;;;;;;;7.90;4.20;;;1.80;99.90;;;;;;4986101;28;20128;-61
2022/04/02 00:57:35;;;;;;;7.90;4.75;;;1.80;99.90;;;;;;5002656;28;20438;-61
2022/04/02 01:00:01;;;;;;;7.80;4.82;;;1.80;99.90;;;;;;5005653;28;20029;-61
2022/04/02 01:02:26;;;;;;;8.40;5.28;;;1.80;99.90;;;;;;5007160;28;20342;-60
2022/04/02 01:04:54;;;;;;;7.68;4.40;;;1.70;99.90;;;;;;5005137;28;20030;-61
2022/04/02 01:07:21;;;;;;;9.00;5.32;;;1.70;99.90;;;;;;5004265;28;20097;-60
2022/04/02 01:09:46;;;;;;;7.47;5.00;;;1.70;99.90;;;;;;5004915;28;20671;-61
2022/04/02 01:12:12;;;;;;;6.53;4.72;;;1.80;99.90;;;;;;5003937;28;20026;-61
2022/04/02 01:14:38;;;;;;;7.35;4.78;;;1.80;99.90;;;;;;5003699;28;20032;-60
2022/04/02 01:17:05;;;;;;;8.02;4.57;;;1.90;99.90;;;;;;5004665;28;20067;-61
2022/04/02 01:19:31;;;;;;;9.90;4.70;;;1.90;99.90;;;;;;5006866;28;20556;-60
2022/04/02 01:21:57;;;;;;;6.57;4.70;;;1.90;99.90;;;;;;5006700;28;20029;-61
2022/04/02 01:24:22;;;;;;;6.65;3.75;;;1.80;99.90;;;;;;5003933;28;20077;-60
2022/04/02 01:26:48;;;;;;;7.03;4.20;;;1.80;99.90;;;;;;5002696;28;20022;-60
2022/04/02 01:29:13;;;;;;;9.15;4.88;;;1.90;99.90;;;;;;5006349;28;20017;-61
2022/04/02 01:31:43;;;;;;;6.18;3.97;;;1.90;99.90;;;;;;5003905;28;20044;-60
2022/04/02 01:34:09;;;;;;;7.32;4.60;;;2.00;99.90;;;;;;5002269;28;20041;-61
2022/04/02 01:36:35;;;;;;;7.10;4.22;;;2.10;99.90;;;;;;5004204;28;20041;-60
2022/04/02 01:39:01;;;;;;;8.93;3.97;;;1.90;99.90;;;;;;5002163;28;20502;-60
2022/04/02 01:41:26;;;;;;;4.80;3.42;;;1.80;99.90;;;;;;5000770;28;20349;-60
2022/04/02 01:43:52;;;;;;;6.90;3.42;;;1.80;99.90;;;;;;4993320;28;20022;-60
2022/04/02 01:46:17;;;;;;;4.78;3.60;;;1.80;99.90;;;;;;5005541;28;20026;-60
2022/04/02 01:48:45;;;;;;;7.85;3.85;;;1.80;99.90;;;;;;5002756;28;20022;-61
2022/04/02 01:51:11;;;;;;;7.63;4.35;;;1.90;99.90;;;;;;5005387;28;20175;-61
2022/04/02 01:53:37;;;;;;;8.52;4.25;;;1.90;99.90;;;;;;5006640;28;20452;-60
2022/04/02 01:56:02;;;;;;;8.27;4.20;;;1.90;99.90;;;;;;4998464;28;20366;-60
2022/04/02 01:58:29;;;;;;;6.72;3.28;;;1.90;99.90;;;;;;5003444;28;20057;-60
2022/04/02 02:00:55;;;;;;;5.90;3.70;;;1.80;99.90;;;;;;4989071;28;20037;-61
2022/04/02 02:03:20;;;;;;;5.80;3.75;;;1.80;99.90;;;;;;5004278;28;20999;-60
2022/04/02 02:05:46;;;;;;;4.50;3.22;;;2.00;99.90;;;;;;5003580;28;20096;-61
2022/04/02 02:08:12;;;;;;;4.78;3.47;;;2.10;99.90;;;;;;5007113;28;20049;-60
2022/04/02 02:10:37;;;;;;;8.70;3.42;;;2.20;99.90;;;;;;5003250;28;20377;-61
2022/04/02 02:13:03;;;;;;;5.70;3.28;;;2.10;99.90;;;;;;5006118;28;20022;-61
2022/04/02 02:15:29;;;;;;;3.03;2.58;;;2.10;99.90;;;;;;5004976;28;20031;-61
2022/04/02 02:17:54;;;;;;;5.53;2.95;;;2.00;99.90;;;;;;5005199;28;20099;-61
2022/04/02 02:20:21;;;;;;;4.50;2.78;;;2.00;99.90;;;;;;5003062;28;20026;-61
2022/04/02 02:22:48;;;;;;;3.85;2.47;;;2.10;99.90;;;;;;5003838;28;20026;-61
2022/04/02 02:25:15;;;;;;;4.95;3.08;;;2.00;99.90;;;;;;5000886;28;20532;-60
2022/04/02 02:27:42;;;;;;;6.55;3.10;;;2.00;99.90;;;;;;5001669;28;20487;-61
2022/04/02 02:30:10;;;;;;;6.25;2.72;;;2.20;99.90;;;;;;5001703;28;20049;-60
2022/04/02 02:32:39;;;;;;;8.68;3.00;;;2.00;99.90;;;;;;5005490;28;20493;-60
2022/04/02 02:38:01;;;;;;;5.40;2.63;;;2.10;99.90;;;;;;5004125;28;20092;-60
2022/04/02 02:40:26;;;;;;;5.95;3.17;;;2.00;99.90;;;;;;5004061;28;20033;-60
2022/04/02 02:42:52;;;;;;;5.35;2.78;;;1.90;99.90;;;;;;5004561;28;20033;-60
2022/04/02 02:45:18;;;;;;;5.50;3.05;;;1.90;99.90;;;;;;5001525;28;20022;-61
2022/04/02 02:47:43;;;;;;;6.53;3.10;;;2.10;99.90;;;;;;5003652;28;20101;-60
2022/04/02 02:50:09;;;;;;;6.95;2.72;;;2.00;99.90;;;;;;4999733;28;20023;-61
2022/04/02 02:52:34;;;;;;;4.18;2.65;;;2.00;99.90;;;;;;5004813;28;20038;-61
2022/04/02 02:55:00;;;;;;;4.65;2.70;;;2.10;99.90;;;;;;5002881;28;20095;-61
2022/04/02 02:57:26;;;;;;;3.92;2.78;;;2.00;99.90;;;;;;5001539;28;20041;-61
2022/04/02 02:59:51;;;;;;;8.07;3.00;;;2.20;99.90;;;;;;5005406;28;20026;-61
2022/04/02 03:02:17;;;;;;;4.97;2.90;;;2.10;99.90;;;;;;5002605;28;20037;-60
2022/04/02 03:04:43;;;;;;;6.25;2.90;;;2.10;99.90;;;;;;4997876;28;20026;-60
2022/04/02 03:07:08;;;;;;;4.97;2.88;;;2.10;99.90;;;;;;5003111;28;20034;-61
2022/04/02 03:09:34;;;;;;;4.97;3.00;;;2.20;99.90;;;;;;5000274;28;20330;-59
2022/04/02 03:12:00;;;;;;;5.03;3.03;;;2.30;99.90;;;;;;5002731;28;20104;-60
2022/04/02 03:14:26;;;;;;;6.43;2.60;;;2.20;99.90;;;;;;5003254;28;20473;-61
2022/04/02 03:16:51;;;;;;;6.03;2.78;;;2.10;99.90;;;;;;5001958;28;20029;-60
2022/04/02 03:19:17;;;;;;;5.45;2.38;;;2.10;99.90;;;;;;5003997;28;20025;-61
2022/04/02 03:21:42;;;;;;;8.40;2.28;;;2.10;99.90;;;;;;5004726;28;20022;-60
2022/04/02 03:24:08;;;;;;;5.28;2.70;;;2.00;99.90;;;;;;5003505;28;20753;-61
2022/04/02 03:26:34;;;;;;;5.43;2.40;;;2.20;99.90;;;;;;5000973;28;20026;-61
2022/04/02 03:28:59;;;;;;;4.13;1.98;;;2.10;99.90;;;;;;5005252;28;20045;-60
2022/04/02 03:31:25;;;;;;;4.60;2.15;;;2.10;99.90;;;;;;5003950;28;20064;-60
2022/04/02 03:33:51;;;;;;;4.53;2.50;;;2.20;99.90;;;;;;5004365;28;20033;-60
2022/04/02 03:36:16;;;;;;;4.80;2.45;;;2.30;99.90;;;;;;5001944;28;20041;-61
2022/04/02 03:38:42;;;;;;;5.43;2.58;;;2.30;99.90;;;;;;5004047;28;20052;-61
2022/04/02 03:41:08;;;;;;;5.05;2.85;;;2.40;99.90;;;;;;4985452;28;20402;-61
2022/04/02 03:43:34;;;;;;;4.40;2.72;;;2.30;99.90;;;;;;4996015;28;20366;-61
2022/04/02 03:48:44;;;;;;;7.75;2.90;;;2.20;99.90;;;;;;5004210;28;20109;-60
2022/04/02 03:51:10;;;;;;;5.00;2.58;;;2.30;99.90;;;;;;5003318;28;20101;-60
2022/04/02 03:53:36;;;;;;;4.82;2.50;;;2.40;99.90;;;;;;5003955;28;20053;-61
2022/04/02 03:56:02;;;;;;;6.25;2.78;;;2.40;99.90;;;;;;4997194;28;20034;-60
2022/04/02 03:58:28;;;;;;;5.00;2.53;;;2.40;99.90;;;;;;5005075;28;20026;-61
2022/04/02 04:00:54;;;;;;;3.72;2.22;;;2.30;99.90;;;;;;5001476;28;20038;-60
2022/04/02 04:03:19;;;;;;;3.75;2.00;;;2.30;99.90;;;;;;5004415;28;20037;-60
2022/04/02 04:05:45;;;;;;;3.17;2.28;;;2.40;99.90;;;;;;5002683;28;20689;-61
2022/04/02 04:08:11;;;;;;;4.78;2.33;;;2.40;99.90;;;;;;5002660;28;20122;-59
2022/04/02 04:10:37;;;;;;;4.63;2.42;;;2.30;99.90;;;;;;4984758;28;20416;-61
2022/04/02 04:13:02;;;;;;;2.10;1.55;;;2.30;99.90;;;;;;5001416;28;20030;-60
2022/04/02 04:15:28;;;;;;;5.68;1.88;;;2.40;99.90;;;;;;5003182;28;20137;-61
2022/04/02 04:17:56;;;;;;;4.80;2.30;;;2.40;99.90;;;;;;5002055;28;20057;-61
2022/04/02 04:20:22;;;;;;;3.10;1.80;;;2.40;99.90;;;;;;5001018;28;20045;-60
2022/04/02 04:22:47;;;;;;;5.72;2.45;;;2.40;99.90;;;;;;4999801;28;20512;-60
2022/04/02 04:25:13;;;;;;;4.97;2.40;;;2.40;99.90;;;;;;5001555;28;20030;-61
2022/04/02 04:27:39;;;;;;;4.10;2.20;;;2.50;99.90;;;;;;5002617;28;20547;-61
2022/04/02 04:30:05;;;;;;;4.63;2.10;;;2.40;99.90;;;;;;4986485;28;20052;-61
2022/04/02 04:32:31;;;;;;;4.38;2.13;;;2.30;99.90;;;;;;5000409;28;20022;-60
2022/04/02 04:34:57;;;;;;;5.20;2.35;;;2.50;99.90;;;;;;5001433;28;20032;-60
2022/04/02 04:37:22;;;;;;;5.47;2.55;;;2.50;99.90;;;;;;4985265;28;20104;-60
2022/04/02 04:39:48;;;;;;;4.65;2.40;;;2.40;99.90;;;;;;5003294;28;20682;-60
2022/04/02 04:42:13;;;;;;;2.83;1.88;;;2.50;99.90;;;;;;5000730;28;20389;-61
2022/04/02 04:44:40;;;;;;;4.95;2.28;;;2.50;99.90;;;;;;5001697;28;20030;-60
2022/04/02 04:47:06;;;;;;;4.95;2.13;;;2.50;99.90;;;;;;5005637;28;20598;-61
2022/04/02 04:49:32;;;;;;;6.03;2.30;;;2.40;99.90;;;;;;5006860;28;20024;-61
2022/04/02 04:51:58;;;;;;;4.35;2.10;;;2.30;99.90;;;;;;5004721;28;20076;-61
2022/04/02 04:54:24;;;;;;;4.50;2.13;;;2.50;99.90;;;;;;5005423;28;20038;-61
2022/04/02 04:56:49;;;;;;;4.00;2.17;;;2.40;99.90;;;;;;5003857;28;20026;-60
2022/04/02 04:59:15;;;;;;;3.30;2.22;;;2.40;99.90;;;;;;5006497;28;21860;-61
2022/04/02 05:01:41;;;;;;;4.25;1.90;;;2.30;99.90;;;;;;5006213;28;20037;-61
2022/04/02 05:04:06;;;;;;;4.85;2.17;;;2.40;99.90;;;;;;5004689;28;23529;-61
2022/04/02 05:06:37;;;;;;;4.07;2.00;;;2.30;99.90;;;;;;5006066;28;20148;-60
2022/04/02 05:09:04;;;;;;;3.72;1.90;;;2.10;99.90;;;;;;5006557;28;20551;-61
2022/04/02 05:11:31;;;;;;;3.53;1.80;;;2.40;99.90;;;;;;5002381;28;20457;-61
2022/04/02 05:13:59;;;;;;;4.30;2.33;;;2.30;99.90;;;;;;5002674;28;20029;-61
2022/04/02 05:16:26;;;;;;;4.00;2.35;;;2.30;99.90;;;;;;5004512;28;20092;-60
2022/04/02 05:18:52;;;;;;;6.07;3.35;;;2.40;99.90;;;;;;5006619;28;20430;-61
2022/04/02 05:21:18;;;;;;;4.35;1.70;;;2.40;99.90;;;;;;4989301;28;20459;-61
2022/04/02 05:23:44;;;;;;;4.40;2.20;;;2.40;99.90;;;;;;5007618;28;20022;-60
2022/04/02 05:26:09;;;;;;;3.45;2.05;;;2.30;99.90;;;;;;4987178;28;20030;-60
2022/04/02 05:28:35;;;;;;;6.07;1.83;;;2.40;99.90;;;;;;4999951;28;20029;-60
2022/04/02 05:31:00;;;;;;;3.83;2.10;;;2.40;99.90;;;;;;5002173;28;20049;-61
2022/04/02 05:33:26;;;;;;;5.18;2.30;;;2.40;99.90;;;;;;5005754;28;20436;-61
2022/04/02 05:35:52;;;;;;;5.00;2.67;;;2.50;99.90;;;;;;5004257;28;20081;-61
2022/04/02 05:38:17;;;;;;;5.50;2.38;;;2.50;99.90;;;;;;5003490;28;20117;-60
2022/04/02 05:40:43;;;;;;;4.40;2.35;;;2.40;99.90;;;;;;5003206;28;20380;-61
2022/04/02 05:43:08;;;;;;;3.85;2.25;;;2.50;99.90;;;;;;5001742;28;20048;-59
2022/04/02 05:45:34;;;;;;;4.22;2.55;;;2.40;99.90;;;;;;5006220;28;20108;-61
2022/04/02 05:48:00;;;;;;;4.45;2.30;;;2.50;99.90;;;;;;5006828;28;20041;-60
2022/04/02 05:50:26;;;;;;;2.85;2.25;;;2.40;99.90;;;;;;5005903;28;20028;-61
2022/04/02 05:52:52;;;;;;;4.93;2.55;;;2.50;99.90;;;;;;5003660;28;20034;-60
2022/04/02 05:55:18;;;;;;;3.28;2.13;;;2.50;99.90;;;;;;5002117;28;20073;-61
2022/04/02 05:57:45;;;;;;;5.85;2.83;;;2.50;99.90;;;;;;5005002;28;20109;-61
2022/04/02 06:00:13;;;;;;;6.15;3.47;;;2.60;99.90;;;;;;5002236;28;20081;-60
2022/04/02 06:02:39;;;;;;;4.40;2.55;;;2.50;99.90;;;;;;5003370;28;20041;-61
2022/04/02 06:05:07;;;;;;;4.03;2.30;;;2.50;99.90;;;;;;5006441;28;20022;-61
2022/04/02 06:07:33;;;;;;;3.63;2.47;;;2.50;99.90;;;;;;4989668;28;20543;-61
2022/04/02 06:09:59;;;;;;;3.70;2.30;;;2.60;99.90;;;;;;5005427;28;20104;-61
2022/04/02 06:12:25;;;;;;;5.20;2.67;;;2.70;99.90;;;;;;5001415;28;20481;-60
2022/04/02 06:14:51;;;;;;;3.55;2.47;;;2.80;99.90;;;;;;5006349;28;20045;-61
2022/04/02 06:17:16;;;;;;;5.70;2.55;;;2.70;99.90;;;;;;5005559;28;20485;-60
2022/04/02 06:19:42;;;;;;;3.85;2.20;;;2.60;99.90;;;;;;5001798;28;20018;-61
2022/04/02 06:22:07;;;;;;;5.72;2.95;;;2.50;99.90;;;;;;4999820;28;20487;-60
2022/04/02 06:24:34;;;;;;;3.53;2.70;;;2.60;99.90;;;;;;5002684;28;20045;-61
2022/04/02 06:27:00;;;;;;;5.40;2.50;;;2.60;99.90;;;;;;5003119;28;20982;-61
2022/04/02 06:29:26;;;;;;;5.03;2.40;;;2.60;99.90;;;;;;4984837;28;20049;-61
2022/04/02 06:31:52;;;;;;;3.92;2.60;;;2.70;99.90;;;;;;4993172;28;20061;-60
2022/04/02 06:34:17;;;;;;;7.13;2.80;;;2.70;99.90;;;;;;5001672;28;20030;-61
2022/04/02 06:36:43;;;;;;;7.00;3.50;;;2.70;99.90;;;;;;5002951;28;20602;-60
2022/04/02 06:39:08;;;;;;;6.28;2.75;;;2.70;99.90;;;;;;5001737;28;20112;-61
2022/04/02 06:41:34;;;;;;;5.55;2.50;;;2.70;99.90;;;;;;4985700;28;20057;-61
2022/04/02 06:43:59;;;;;;;6.32;2.40;;;2.70;99.90;;;;;;4986112;28;20018;-61
2022/04/02 06:46:25;;;;;;;6.05;1.77;;;2.70;99.90;;;;;;5000854;28;20421;-60
2022/04/02 06:48:51;;;;;;;8.00;2.83;;;2.70;99.90;;;;;;5000177;28;20493;-59
2022/04/02 06:51:17;;;;;;;7.93;2.50;;;2.80;99.90;;;;;;5002976;28;20026;-60
2022/04/02 06:53:43;;;;;;;5.05;2.85;;;2.80;99.90;;;;;;5003139;28;20013;-60
2022/04/02 06:56:08;;;;;;;4.40;2.45;;;2.80;99.90;;;;;;5000643;28;20030;-60
2022/04/02 06:58:39;;;;;;;6.40;2.60;;;;;;;;;;5004760;28;20036;-60
2022/04/02 07:01:07;;;;;;;5.88;2.67;;;2.80;99.90;;;;;;5002040;28;20033;-61
2022/04/02 07:03:35;;;;;;;3.97;2.25;;;3.00;99.90;;;;;;4983784;28;20485;-60
2022/04/02 07:06:00;;;;;;;4.88;2.85;;;3.10;99.90;;;;;;5002800;28;20565;-60
2022/04/02 07:08:26;;;;;;;3.25;2.28;;;3.10;99.90;;;;;;5001363;28;20109;-61
2022/04/02 07:10:51;;;;;;;7.07;2.83;;;3.20;99.90;;;;;;4999960;28;20030;-61
2022/04/02 07:13:17;;;;;;;7.60;3.00;;;3.10;99.90;;;;;;4999737;28;20021;-60
2022/04/02 07:15:43;;;;;;;5.60;2.95;;;3.20;99.90;;;;;;5000473;28;20378;-60
2022/04/02 07:18:10;;;;;;;7.18;3.60;;;3.20;99.90;;;;;;4999113;28;20037;-60
2022/04/02 07:20:38;;;;;;;5.90;3.35;;;3.30;99.90;;;;;;5002862;28;20084;-61
2022/04/02 07:23:08;;;;;;;4.65;2.67;;;3.30;99.90;;;;;;5001240;28;20040;-60
2022/04/02 07:25:36;;;;;;;5.05;2.42;;;3.40;99.90;;;;;;5000746;28;20500;-60
2022/04/02 07:28:04;;;;;;;6.57;2.78;;;3.40;99.90;;;;;;4999821;28;20025;-60
2022/04/02 07:30:32;;;;;;;5.45;3.03;;;3.10;99.90;;;;;;4984190;28;20493;-60
2022/04/02 07:32:58;;;;;;;4.90;2.80;;;3.30;99.90;;;;;;5000374;28;20034;-59
2022/04/02 07:35:23;;;;;;;4.70;2.70;;;3.30;99.90;;;;;;5001382;28;20456;-60
2022/04/02 07:37:58;;;;;;;4.55;2.40;;;3.30;99.90;;;;;;4983623;28;20048;-60
2022/04/02 07:40:28;;;;;;;5.38;2.90;;;3.30;99.90;;;;;;5000000;28;20030;-60
2022/04/02 07:43:04;;;;;;;8.18;3.72;;;3.40;99.90;;;;;;5000889;28;20025;-60
2022/04/02 07:45:41;;;;;;;7.03;2.92;;;3.40;99.90;;;;;;4997848;28;20482;-60
2022/04/02 07:48:08;;;;;;;4.68;2.03;;;3.50;99.90;;;;;;4985843;28;20029;-60
2022/04/02 07:50:35;;;;;;;3.80;2.35;;;3.40;99.90;;;;;;5001542;28;20044;-60
2022/04/02 07:53:02;;;;;;;4.18;2.58;;;3.50;99.90;;;;;;4982674;28;20037;-61
2022/04/02 07:55:29;;;;;;;5.28;3.10;;;3.60;99.90;;;;;;5001705;28;20065;-60
2022/04/02 07:57:58;;;;;;;4.28;2.50;;;3.60;99.90;;;;;;4999825;28;20087;-61
2022/04/02 08:00:26;;;;;;;7.38;2.67;;;3.70;99.90;;;;;;5000896;28;20041;-61
2022/04/02 08:02:52;;;;;;;7.45;3.03;;;3.70;99.90;;;;;;5001001;28;20026;-60
2022/04/02 08:05:19;;;;;;;5.78;2.88;;;3.80;99.90;;;;;;5001473;28;20022;-60
2022/04/02 08:07:50;;;;;;;6.60;2.63;;;3.80;99.90;;;;;;5001670;28;21182;-60
2022/04/02 08:10:18;;;;;;;9.13;2.80;;;3.70;99.90;;;;;;5001319;28;20113;-61
2022/04/02 08:12:43;;;;;;;6.90;2.60;;;3.90;99.90;;;;;;4983442;28;20029;-61
2022/04/02 08:15:16;;;;;;;5.65;2.80;;;3.80;99.90;;;;;;5003108;28;20117;-62
2022/04/02 08:17:46;;;;;;;5.47;2.63;;;3.70;99.90;;;;;;5001442;28;20046;-60
2022/04/02 08:20:15;;;;;;;4.28;2.65;;;4.00;99.90;;;;;;5003179;28;20056;-62
2022/04/02 08:22:41;;;;;;;6.15;3.00;;;3.80;99.90;;;;;;5006624;28;20738;-61
2022/04/02 08:25:07;;;;;;;6.00;3.15;;;3.90;99.90;;;;;;5003952;28;20698;-62
2022/04/02 08:27:53;;;;;;;6.53;2.80;;;3.90;99.90;;;;;;5006381;28;20026;-62
2022/04/02 08:30:30;;;;;;;5.00;2.55;;;3.90;99.90;;;;;;5007164;28;20657;-61
2022/04/02 08:33:19;;;;;;;6.47;2.63;;;3.90;99.90;;;;;;5004613;28;20029;-60
2022/04/02 08:36:13;;;;;;;5.53;2.53;;;3.90;99.90;;;;;;5001462;28;20025;-61
2022/04/02 08:38:56;;;;;;;;;;;4.00;99.90;;;;;;5005056;28;20037;-61
2022/04/02 08:42:09;;;;;;;8.30;2.95;;;3.80;99.90;;;;;;4983453;28;20369;-62
2022/04/02 08:45:11;;;;;;;5.72;2.40;;;4.10;99.90;;;;;;5004541;28;20032;-62
2022/04/02 08:48:19;;;;;;;5.63;3.28;;;4.10;99.90;;;;;;4945347;28;20037;-62
2022/04/02 08:50:48;;;;;;;5.45;2.63;;;4.10;99.90;;;;;;5004881;28;20022;-60
2022/04/02 08:53:18;;;;;;;7.93;3.58;;;4.70;99.90;;;;;;5005610;28;20029;-61
2022/04/02 08:55:50;;;;;;;7.10;3.10;;;4.20;99.90;;;;;;5005027;28;20559;-61
2022/04/02 08:58:23;;;;;;;8.00;3.10;;;4.40;99.90;;;;;;5002545;28;20437;-62
2022/04/02 09:01:08;;;;;;;5.97;3.33;;;4.50;99.90;;;;;;5004653;28;20096;-61
2022/04/02 09:04:11;;;;;;;6.45;2.92;;;4.30;99.90;;;;;;5006185;28;20100;-62
2022/04/02 09:07:13;;;;;;;7.63;3.92;;;4.30;99.90;;;;;;5001064;28;20026;-63
2022/04/02 09:10:16;;;;;;;6.65;3.65;;;4.50;99.90;;;;;;5004144;28;20022;-62
2022/04/02 09:13:00;;;;;;;5.10;3.33;;;4.50;99.90;;;;;;4986007;28;20033;-60
2022/04/02 09:16:00;;;;;;;4.53;2.50;;;4.30;99.90;;;;;;5001071;28;20268;-61
2022/04/02 09:18:51;;;;;;;6.25;3.88;;;4.20;99.90;;;;;;5002045;28;22340;-62
2022/04/02 09:21:26;;;;;;;8.50;3.90;;;4.30;99.90;;;;;;4986069;28;20358;-62
2022/04/02 09:24:05;;;;;;;9.15;3.58;;;4.20;99.90;;;;;;5003616;28;20141;-62
2022/04/02 09:26:55;;;;;;;5.43;2.80;;;4.20;99.90;;;;;;5001995;28;20119;-62
2022/04/02 09:29:36;;;;;;;4.55;2.90;;;4.10;99.90;;;;;;5003381;28;20051;-61
2022/04/02 09:32:22;;;;;;;5.65;3.40;;;4.10;99.90;;;;;;5003634;28;20053;-62
2022/04/02 09:35:19;;;;;;;5.97;3.90;;;4.30;99.90;;;;;;5003323;28;20037;-61
2022/04/02 09:38:18;;;;;;;7.00;4.55;;;4.10;99.90;;;;;;4989307;28;20033;-61
2022/04/02 09:40:50;;;;;;;6.43;3.92;;;4.50;99.90;;;;;;5000824;28;20033;-59
2022/04/02 09:43:28;;;;;;;6.60;3.80;;;4.30;99.90;;;;;;5002879;28;20033;-62
2022/04/02 09:46:18;;;;;;;7.13;4.30;;;4.50;99.90;;;;;;5003030;28;20864;-61
2022/04/02 09:49:00;;;;;;;6.72;4.32;;;4.30;99.90;;;;;;5005957;28;20369;-62
2022/04/02 09:51:31;;;;;;;8.73;4.88;;;4.40;99.90;;;;;;5001535;28;20068;-62
2022/04/02 09:54:21;;;;;;;7.80;4.43;;;;;;;;;;5002910;28;20038;-62
2022/04/02 09:56:52;;;;;;;6.43;4.22;;;;;;;;;;5001161;28;20630;-62
2022/04/02 09:59:47;;;;;;;5.53;3.78;;;4.70;99.90;;;;;;5004730;28;20430;-62
2022/04/02 10:03:00;;;;;;;8.98;3.88;;;4.70;99.90;;;;;;4999926;28;20025;-61
2022/04/02 10:06:03;;;;;;;5.60;4.10;;;4.10;99.90;;;;;;4979481;28;21135;-62
2022/04/02 10:08:39;;;;;;;6.63;3.70;;;4.10;99.90;;;;;;5003175;28;20045;-62
2022/04/02 10:11:11;;;;;;;7.65;4.60;;;4.30;99.90;;;;;;4987527;28;20091;-62
2022/04/02 10:13:38;;;;;;;8.02;4.93;;;4.50;99.90;;;;;;5004660;28;20025;-62
2022/04/02 10:16:05;;;;;;;7.38;4.82;;;4.50;99.90;;;;;;4999434;28;20422;-62
2022/04/02 10:18:35;;;;;;;7.35;4.28;;;4.40;99.90;;;;;;4983880;28;20030;-63
2022/04/02 10:21:05;;;;;;;7.82;3.92;;;4.60;99.90;;;;;;4984273;28;20037;-62
2022/04/02 10:23:35;;;;;;;6.20;4.03;;;4.30;99.90;;;;;;5004963;28;20489;-61
2022/04/02 10:26:15;;;;;;;7.03;4.65;;;4.20;99.90;;;;;;5001641;28;20037;-62
2022/04/02 10:28:56;;;;;;;7.65;4.65;;;4.30;99.90;;;;;;5002549;28;20392;-62
2022/04/02 10:31:56;;;;;;;6.95;4.63;;;4.50;99.90;;;;;;5002977;28;20018;-62
2022/04/02 10:34:46;;;;;;;6.15;3.75;;;4.60;99.90;;;;;;5002946;28;20220;-62
2022/04/02 10:37:15;;;;;;;5.47;3.63;;;4.60;99.90;;;;;;5005132;28;20029;-62
2022/04/02 10:39:56;;;;;;;6.38;4.40;;;4.50;99.90;;;;;;5001416;28;20025;-62
2022/04/02 10:42:36;;;;;;;8.35;4.45;;;4.50;99.90;;;;;;4997996;28;20033;-62
2022/04/02 10:45:12;;;;;;;7.03;4.93;;;4.50;99.90;;;;;;4986225;28;20025;-62
2022/04/02 10:47:48;;;;;;;14.05;5.55;;;4.40;99.90;;;;;;5002991;28;20022;-62
2022/04/02 10:50:18;;;;;;;6.68;4.25;;;4.50;99.90;;;;;;5001289;28;20519;-62
2022/04/02 10:52:47;;;;;;;7.57;5.10;;;4.30;99.90;;;;;;5002290;28;20026;-62
2022/04/02 10:55:17;;;;;;;7.60;4.10;;;4.30;99.90;;;;;;4998106;28;20552;-61
2022/04/02 10:57:43;;;;;;;17.10;10.73;;;4.60;99.90;;;;;;5002640;28;20485;-62
2022/04/02 11:00:10;;;;;;;8.23;4.60;;;4.40;99.90;;;;;;4998961;28;20104;-61
2022/04/02 11:02:44;;;;;;;7.72;4.03;;;4.30;99.90;;;;;;5004993;28;20045;-62
2022/04/02 11:05:13;;;;;;;9.65;4.57;;;4.40;99.90;;;;;;5003453;28;20069;-61
2022/04/02 11:07:48;;;;;;;6.68;4.85;;;4.30;99.90;;;;;;5000676;28;20018;-62
2022/04/02 11:10:17;;;;;;;10.32;5.05;;;4.60;99.90;;;;;;4997198;28;20129;-61
2022/04/02 11:12:45;;;;;;;6.13;4.47;;;4.60;99.90;;;;;;5001029;28;20034;-60
2022/04/02 11:15:23;;;;;;;8.15;4.20;;;;;;;;;;5001118;28;20026;-61
2022/04/02 11:17:51;;;;;;;6.97;4.63;;;4.20;99.90;;;;;;4983474;28;20029;-62
2022/04/02 11:20:22;;;;;;;8.02;4.70;;;4.50;99.90;;;;;;5000953;28;20432;-61
2022/04/02 11:23:02;;;;;;;8.68;4.70;;;4.60;99.90;;;;;;5001556;28;20053;-62
2022/04/02 11:25:31;;;;;;;9.68;5.20;;;4.60;99.90;;;;;;4999151;28;20501;-62
2022/04/02 11:28:08;;;;;;;5.07;3.75;;;4.40;99.90;;;;;;4993962;28;20222;-62
2022/04/02 11:30:48;;;;;;;7.35;5.05;;;4.60;99.90;;;;;;4994558;28;20105;-61
2022/04/02 11:33:18;;;;;;;7.40;4.78;;;4.30;99.90;;;;;;5002273;28;20029;-62
2022/04/02 11:35:48;;;;;;;10.27;4.80;;;4.50;99.90;;;;;;5001118;28;20465;-62
2022/04/02 11:38:27;;;;;;;6.68;4.45;;;4.50;99.90;;;;;;5002774;28;20021;-62
2022/04/02 11:40:56;;;;;;;8.98;5.05;;;4.60;99.90;;;;;;5001552;28;20017;-62
2022/04/02 11:43:51;;;;;;;11.25;6.22;;;4.50;99.90;;;;;;5002039;28;20057;-62
2022/04/02 11:46:19;;;;;;;10.98;6.22;;;4.20;99.90;;;;;;4999506;28;20381;-61
2022/04/02 11:48:54;;;;;;;11.82;7.13;;;5.50;99.90;;;;;;4983243;28;20029;-62
2022/04/02 11:51:33;;;;;;;10.85;6.30;;;4.10;99.90;;;;;;5000177;28;20506;-61
2022/04/02 11:54:04;;;;;;;8.27;5.25;;;4.20;99.90;;;;;;5005003;28;20022;-59
2022/04/02 11:56:35;;;;;;;11.43;6.10;;;3.80;99.90;;;;;;5005666;28;20115;-62
2022/04/02 11:59:05;;;;;;;10.63;6.05;;;3.90;99.90;;;;;;4989775;28;20048;-62
2022/04/02 12:01:50;;;;;;;8.63;5.68;;;4.00;99.90;;;;;;5000275;28;20114;-61
2022/04/02 12:04:18;;;;;;;9.38;5.70;;;4.30;99.90;;;;;;5005344;28;20425;-62
2022/04/02 12:06:49;;;;;;;10.48;5.63;;;4.40;99.90;;;;;;5008418;28;20026;-62
2022/04/02 12:09:18;;;;;;;10.13;5.28;;;4.30;99.90;;;;;;4989449;28;20018;-62
2022/04/02 12:11:55;;;;;;;9.73;5.60;;;4.30;99.90;;;;;;4992419;28;20025;-61
2022/04/02 12:14:34;;;;;;;10.85;5.45;;;4.40;99.90;;;;;;5003455;28;20028;-61
2022/04/02 12:17:02;;;;;;;10.05;5.53;;;4.50;99.90;;;;;;5005216;28;20017;-61
2022/04/02 12:19:42;;;;;;;8.13;5.47;;;4.60;99.90;;;;;;5004562;28;20523;-62
2022/04/02 12:22:33;;;;;;;8.38;5.20;;;4.90;99.90;;;;;;5006804;28;20026;-61
2022/04/02 12:25:13;;;;;;;10.40;5.40;;;5.00;99.90;;;;;;5003925;28;20448;-61
2022/04/02 12:27:48;;;;;;;8.00;5.13;;;4.80;99.90;;;;;;4986578;28;20041;-62
2022/04/02 12:30:21;;;;;;;8.93;5.35;;;4.90;99.90;;;;;;5007262;28;20022;-61
2022/04/02 12:32:46;;;;;;;8.55;5.82;;;4.70;99.90;;;;;;4988551;28;20084;-61
2022/04/02 12:35:26;;;;;;;8.30;4.90;;;4.80;99.90;;;;;;4991034;28;20460;-62
2022/04/02 12:37:57;;;;;;;8.63;4.18;;;4.80;99.90;;;;;;5002405;28;20061;-62
2022/04/02 12:40:23;;;;;;;6.82;4.18;;;5.00;99.90;;;;;;5002906;28;20076;-61
2022/04/02 12:42:52;;;;;;;7.00;4.63;;;4.80;99.90;;;;;;5003888;28;20030;-62
2022/04/02 12:45:20;;;;;;;6.75;4.22;;;4.70;99.90;;;;;;5005154;28;20099;-62
2022/04/02 12:47:55;;;;;;;6.78;4.85;;;4.60;99.90;;;;;;5003283;28;20465;-61
2022/04/02 12:50:20;;;;;;;7.75;4.55;;;4.80;99.90;;;;;;5002431;28;20409;-62
2022/04/02 12:52:48;;;;;;;7.68;4.75;;;5.10;99.90;;;;;;5006042;28;20025;-61
2022/04/02 12:55:22;;;;;;;6.15;4.32;;;5.10;99.90;;;;;;5003285;28;20037;-61
2022/04/02 12:58:02;;;;;;;7.55;4.60;;;5.30;99.90;;;;;;5002287;28;20517;-62
2022/04/02 13:00:46;;;;;;;7.85;4.47;;;5.40;99.90;;;;;;5002621;28;20515;-61
2022/04/02 13:03:31;;;;;;;9.68;4.63;;;5.50;99.90;;;;;;5003750;28;20073;-61
2022/04/02 13:06:01;;;;;;;5.72;4.10;;;5.40;99.90;;;;;;5004152;28;20021;-61
2022/04/02 13:08:28;;;;;;;134.52;65.95;;;5.60;99.90;;;;;;5003131;28;20168;-61
2022/04/02 13:10:56;;;;;;;7.65;4.82;;;5.60;99.90;;;;;;5003747;28;20511;-61
2022/04/02 13:13:38;;;;;;;6.50;4.72;;;5.70;99.90;;;;;;5002770;28;20026;-60
2022/04/02 13:16:05;;;;;;;6.60;4.80;;;5.80;99.90;;;;;;5003525;28;20033;-62
2022/04/02 13:21:22;;;;;;;7.40;4.82;;;5.90;99.90;;;;;;5003766;28;20113;-62
2022/04/02 13:24:06;;;;;;;7.72;4.90;;;5.80;99.90;;;;;;5001833;28;20096;-62
2022/04/02 13:26:34;;;;;;;5.93;4.57;;;5.80;99.90;;;;;;5004045;28;20048;-62